createdAt,value
2017-09-18T00:00:54.993Z,21.43
2017-09-18T00:01:55.020Z,21.38
2017-09-18T00:02:55.053Z,21.36
2017-09-18T00:03:55.090Z,21.40
2017-09-18T00:04:55.449Z,21.36
2017-09-18T00:05:55.151Z,21.40
2017-09-18T00:06:55.290Z,21.37
2017-09-18T00:07:55.220Z,21.37
2017-09-18T00:08:55.276Z,21.31
2017-09-18T00:09:55.284Z,21.37
2017-09-18T00:10:55.318Z,21.30
2017-09-18T00:11:55.644Z,21.33
2017-09-18T00:12:55.387Z,21.37
2017-09-18T00:13:55.410Z,21.34
2017-09-18T00:14:55.444Z,21.31
2017-09-18T00:15:55.477Z,21.24
2017-09-18T00:16:55.524Z,21.33
2017-09-18T00:17:55.694Z,21.28
2017-09-18T00:18:55.871Z,21.24
2017-09-18T00:19:55.605Z,21.22
2017-09-18T00:20:55.647Z,21.27
2017-09-18T00:21:55.692Z,21.22
2017-09-18T00:22:55.712Z,21.27
2017-09-18T00:23:55.735Z,21.18
2017-09-18T00:24:55.788Z,21.16
2017-09-18T00:25:56.100Z,21.22
2017-09-18T00:26:55.832Z,21.22
2017-09-18T00:27:56.267Z,21.19
2017-09-18T00:28:55.902Z,21.18
2017-09-18T00:29:55.930Z,21.18
2017-09-18T00:30:55.963Z,21.24
2017-09-18T00:31:55.995Z,21.13
2017-09-18T00:32:56.331Z,21.08
2017-09-18T00:33:56.110Z,21.13
2017-09-18T00:34:56.106Z,21.06
2017-09-18T00:35:56.123Z,21.15
2017-09-18T00:36:56.205Z,21.05
2017-09-18T00:37:56.219Z,21.08
2017-09-18T00:38:56.377Z,21.12
2017-09-18T00:39:56.552Z,21.05
2017-09-18T00:40:56.290Z,21.01
2017-09-18T00:41:56.316Z,21.05
2017-09-18T00:42:56.353Z,21.01
2017-09-18T00:43:56.430Z,21.03
2017-09-18T00:44:56.481Z,21.03
2017-09-18T00:45:56.450Z,21.08
2017-09-18T00:46:56.793Z,21.00
2017-09-18T00:47:56.512Z,21.00
2017-09-18T00:48:56.642Z,20.96
2017-09-18T00:49:56.576Z,20.97
2017-09-18T00:50:56.610Z,21.00
2017-09-18T00:51:56.641Z,20.98
2017-09-18T00:52:56.679Z,20.96
2017-09-18T00:53:56.705Z,21.00
2017-09-18T00:54:56.938Z,20.98
2017-09-18T00:55:56.773Z,20.96
2017-09-18T00:56:56.804Z,20.94
2017-09-18T00:57:56.832Z,20.94
2017-09-18T00:58:56.874Z,20.96
2017-09-18T00:59:57.204Z,20.97
2017-09-18T01:00:56.933Z,20.97
2017-09-18T01:01:56.963Z,20.96
2017-09-18T01:02:56.999Z,20.90
2017-09-18T01:03:57.034Z,20.98
2017-09-18T01:04:57.068Z,21.00
2017-09-18T01:05:57.092Z,21.00
2017-09-18T01:06:57.434Z,20.94
2017-09-18T01:07:57.211Z,20.93
2017-09-18T01:08:57.192Z,21.13
2017-09-18T01:09:57.220Z,21.06
2017-09-18T01:10:57.489Z,20.98
2017-09-18T01:11:57.294Z,20.91
2017-09-18T01:12:57.320Z,20.93
2017-09-18T01:13:57.663Z,21.05
2017-09-18T01:14:57.383Z,20.85
2017-09-18T01:15:57.467Z,20.98
2017-09-18T01:16:57.608Z,20.90
2017-09-18T01:17:57.481Z,20.98
2017-09-18T01:18:57.516Z,20.90
2017-09-18T01:19:57.547Z,20.97
2017-09-18T01:20:57.882Z,20.83
2017-09-18T01:21:57.610Z,20.96
2017-09-18T01:22:57.642Z,20.81
2017-09-18T01:23:57.671Z,20.93
2017-09-18T01:24:57.708Z,20.94
2017-09-18T01:25:57.736Z,20.88
2017-09-18T01:26:58.103Z,20.98
2017-09-18T01:27:57.855Z,20.91
2017-09-18T01:28:57.833Z,20.96
2017-09-18T01:29:57.867Z,20.96
2017-09-18T01:30:57.897Z,20.96
2017-09-18T01:31:57.931Z,20.88
2017-09-18T01:32:58.267Z,20.96
2017-09-18T01:33:58.046Z,20.94
2017-09-18T01:34:58.035Z,20.94
2017-09-18T01:35:58.062Z,20.90
2017-09-18T01:36:58.092Z,20.93
2017-09-18T01:37:58.157Z,20.90
2017-09-18T01:38:58.714Z,20.90
2017-09-18T01:39:58.195Z,20.93
2017-09-18T01:40:58.274Z,20.87
2017-09-18T01:41:58.260Z,20.87
2017-09-18T01:42:58.286Z,20.83
2017-09-18T01:43:58.315Z,20.83
2017-09-18T01:44:58.647Z,20.83
2017-09-18T01:45:58.384Z,20.81
2017-09-18T01:46:58.411Z,20.90
2017-09-18T01:47:58.447Z,20.82
2017-09-18T01:48:58.478Z,20.83
2017-09-18T01:49:58.808Z,20.83
2017-09-18T01:50:58.865Z,20.85
2017-09-18T01:51:58.571Z,20.76
2017-09-18T01:52:58.619Z,20.83
2017-09-18T01:53:58.641Z,20.87
2017-09-18T01:54:58.675Z,20.79
2017-09-18T01:55:58.702Z,20.87
2017-09-18T01:56:59.064Z,20.82
2017-09-18T01:57:58.769Z,20.82
2017-09-18T01:58:58.812Z,20.85
2017-09-18T01:59:58.831Z,20.76
2017-09-18T02:00:58.913Z,20.85
2017-09-18T02:01:58.895Z,20.82
2017-09-18T02:02:59.230Z,20.83
2017-09-18T02:03:58.970Z,20.85
2017-09-18T02:04:58.994Z,20.81
2017-09-18T02:05:59.020Z,20.81
2017-09-18T02:06:59.192Z,20.82
2017-09-18T02:07:59.101Z,20.82
2017-09-18T02:08:59.421Z,20.85
2017-09-18T02:09:59.781Z,20.85
2017-09-18T02:10:59.183Z,20.87
2017-09-18T02:12:00.013Z,20.78
2017-09-18T02:12:59.249Z,20.79
2017-09-18T02:13:59.281Z,20.82
2017-09-18T02:14:59.617Z,20.82
2017-09-18T02:15:59.348Z,20.79
2017-09-18T02:16:59.400Z,20.82
2017-09-18T02:17:59.509Z,20.75
2017-09-18T02:18:59.438Z,20.81
2017-09-18T02:19:59.472Z,20.73
2017-09-18T02:20:59.802Z,20.76
2017-09-18T02:21:59.534Z,20.78
2017-09-18T02:22:59.570Z,20.85
2017-09-18T02:23:59.598Z,20.81
2017-09-18T02:24:59.631Z,20.75
2017-09-18T02:25:59.666Z,20.76
2017-09-18T02:26:59.999Z,20.76
2017-09-18T02:27:59.728Z,20.78
2017-09-18T02:29:00.012Z,20.75
2017-09-18T02:29:59.789Z,20.79
2017-09-18T02:30:59.827Z,20.76
2017-09-18T02:31:59.858Z,20.78
2017-09-18T02:33:00.190Z,20.78
2017-09-18T02:33:59.922Z,20.75
2017-09-18T02:34:59.959Z,20.75
2017-09-18T02:36:00.135Z,20.69
2017-09-18T02:37:00.019Z,20.81
2017-09-18T02:38:00.048Z,20.73
2017-09-18T02:39:00.387Z,20.72
2017-09-18T02:40:00.126Z,20.71
2017-09-18T02:41:00.304Z,20.79
2017-09-18T02:42:00.178Z,20.73
2017-09-18T02:43:00.212Z,20.71
2017-09-18T02:44:00.241Z,20.73
2017-09-18T02:45:00.278Z,20.73
2017-09-18T02:46:00.807Z,20.69
2017-09-18T02:47:00.342Z,20.73
2017-09-18T02:48:00.373Z,20.66
2017-09-18T02:49:00.416Z,20.69
2017-09-18T02:50:00.440Z,20.69
2017-09-18T02:51:00.473Z,20.73
2017-09-18T02:52:00.549Z,20.71
2017-09-18T02:53:00.831Z,20.72
2017-09-18T02:54:00.563Z,20.69
2017-09-18T02:55:00.594Z,20.69
2017-09-18T02:56:00.629Z,20.73
2017-09-18T02:57:00.709Z,20.72
2017-09-18T02:58:00.717Z,20.71
2017-09-18T02:59:00.764Z,20.69
2017-09-18T03:00:01.067Z,20.68
2017-09-18T03:01:00.784Z,20.68
2017-09-18T03:02:00.821Z,20.69
2017-09-18T03:03:00.849Z,20.68
2017-09-18T03:04:00.882Z,20.71
2017-09-18T03:05:00.922Z,20.75
2017-09-18T03:06:00.946Z,20.73
2017-09-18T03:07:01.283Z,20.72
2017-09-18T03:08:01.063Z,20.71
2017-09-18T03:09:01.069Z,20.71
2017-09-18T03:10:01.070Z,20.69
2017-09-18T03:11:01.103Z,20.72
2017-09-18T03:12:01.137Z,20.69
2017-09-18T03:13:01.214Z,20.73
2017-09-18T03:14:01.504Z,20.72
2017-09-18T03:15:01.240Z,20.71
2017-09-18T03:16:01.265Z,20.72
2017-09-18T03:17:01.303Z,20.72
2017-09-18T03:18:01.383Z,20.64
2017-09-18T03:19:01.361Z,20.64
2017-09-18T03:20:01.438Z,20.73
2017-09-18T03:21:01.808Z,20.76
2017-09-18T03:22:01.518Z,20.75
2017-09-18T03:23:01.563Z,20.72
2017-09-18T03:24:01.570Z,20.72
2017-09-18T03:25:01.562Z,20.60
2017-09-18T03:26:01.582Z,20.71
2017-09-18T03:27:01.810Z,20.71
2017-09-18T03:28:01.957Z,20.69
2017-09-18T03:29:01.765Z,20.71
2017-09-18T03:30:01.772Z,20.68
2017-09-18T03:31:01.814Z,20.64
2017-09-18T03:32:01.822Z,20.75
2017-09-18T03:33:01.909Z,20.64
2017-09-18T03:34:02.024Z,20.69
2017-09-18T03:35:02.181Z,20.69
2017-09-18T03:36:02.124Z,20.60
2017-09-18T03:37:01.964Z,20.64
2017-09-18T03:38:02.044Z,20.58
2017-09-18T03:39:01.995Z,20.68
2017-09-18T03:40:02.188Z,20.60
2017-09-18T03:41:02.156Z,20.66
2017-09-18T03:42:02.520Z,20.72
2017-09-18T03:43:02.184Z,20.61
2017-09-18T03:44:02.350Z,20.60
2017-09-18T03:45:02.331Z,20.61
2017-09-18T03:46:02.263Z,20.61
2017-09-18T03:47:02.484Z,20.61
2017-09-18T03:48:02.339Z,20.61
2017-09-18T03:49:02.637Z,20.57
2017-09-18T03:50:02.438Z,20.60
2017-09-18T03:51:02.391Z,20.60
2017-09-18T03:52:02.569Z,20.61
2017-09-18T03:53:02.617Z,20.63
2017-09-18T03:54:02.602Z,20.66
2017-09-18T03:55:02.511Z,20.57
2017-09-18T03:56:02.911Z,20.57
2017-09-18T03:57:02.718Z,20.60
2017-09-18T03:58:02.759Z,20.54
2017-09-18T03:59:02.838Z,20.54
2017-09-18T04:00:02.746Z,20.53
2017-09-18T04:01:02.710Z,20.61
2017-09-18T04:02:02.739Z,20.60
2017-09-18T04:03:03.095Z,20.60
2017-09-18T04:04:03.002Z,20.60
2017-09-18T04:08:02.931Z,20.60
2017-09-18T04:09:03.024Z,20.56
2017-09-18T04:10:03.762Z,20.42
2017-09-18T04:11:03.049Z,20.44
2017-09-18T04:12:03.088Z,20.42
2017-09-18T04:13:03.137Z,20.56
2017-09-18T04:14:03.128Z,20.44
2017-09-18T04:15:03.397Z,20.42
2017-09-18T04:16:03.496Z,20.44
2017-09-18T04:17:03.448Z,20.41
2017-09-18T04:18:03.342Z,20.44
2017-09-18T04:19:03.323Z,20.42
2017-09-18T04:20:03.369Z,20.50
2017-09-18T04:21:03.486Z,20.48
2017-09-18T04:22:03.685Z,20.41
2017-09-18T04:23:03.451Z,20.44
2017-09-18T04:24:03.589Z,20.42
2017-09-18T04:25:03.590Z,20.46
2017-09-18T04:26:03.670Z,20.41
2017-09-18T04:27:03.961Z,20.44
2017-09-18T04:28:03.950Z,20.50
2017-09-18T04:29:03.896Z,20.50
2017-09-18T04:30:03.824Z,20.42
2017-09-18T04:31:03.721Z,20.53
2017-09-18T04:32:03.808Z,20.50
2017-09-18T04:33:03.924Z,20.42
2017-09-18T04:34:04.232Z,20.41
2017-09-18T04:35:03.918Z,20.48
2017-09-18T04:36:03.832Z,20.50
2017-09-18T04:37:03.860Z,20.42
2017-09-18T04:38:03.884Z,20.44
2017-09-18T04:39:03.990Z,20.53
2017-09-18T04:40:04.261Z,20.48
2017-09-18T04:41:04.041Z,20.46
2017-09-18T04:42:04.409Z,20.48
2017-09-18T04:43:04.129Z,20.42
2017-09-18T04:44:04.145Z,20.42
2017-09-18T04:45:04.194Z,20.48
2017-09-18T04:46:04.726Z,20.46
2017-09-18T04:47:04.181Z,20.44
2017-09-18T04:48:04.263Z,20.51
2017-09-18T04:49:04.247Z,20.42
2017-09-18T04:51:04.318Z,20.46
2017-09-18T04:52:04.386Z,20.46
2017-09-18T04:53:04.719Z,20.41
2017-09-18T04:54:04.446Z,20.42
2017-09-18T04:55:04.428Z,20.44
2017-09-18T04:56:04.462Z,20.38
2017-09-18T04:57:04.499Z,20.41
2017-09-18T04:58:04.520Z,20.46
2017-09-18T04:59:04.856Z,20.46
2017-09-18T05:00:04.590Z,20.42
2017-09-18T05:01:04.639Z,20.48
2017-09-18T05:02:04.650Z,20.41
2017-09-18T05:03:04.704Z,20.48
2017-09-18T05:04:04.719Z,20.41
2017-09-18T05:05:05.045Z,20.38
2017-09-18T05:06:04.791Z,20.48
2017-09-18T05:07:04.888Z,20.46
2017-09-18T05:08:04.847Z,20.46
2017-09-18T05:09:04.876Z,20.48
2017-09-18T05:10:04.913Z,20.38
2017-09-18T05:11:05.240Z,20.42
2017-09-18T05:12:04.972Z,20.40
2017-09-18T05:13:05.005Z,20.42
2017-09-18T05:14:05.043Z,20.44
2017-09-18T05:15:05.072Z,20.48
2017-09-18T05:16:05.364Z,20.44
2017-09-18T05:17:05.430Z,20.42
2017-09-18T05:18:05.166Z,20.46
2017-09-18T05:19:05.211Z,20.44
2017-09-18T05:20:05.229Z,20.41
2017-09-18T05:21:05.255Z,20.48
2017-09-18T05:22:05.344Z,20.46
2017-09-18T05:23:05.331Z,20.42
2017-09-18T05:25:05.682Z,20.48
2017-09-18T05:26:05.468Z,20.54
2017-09-18T05:27:05.451Z,20.50
2017-09-18T05:28:05.486Z,20.54
2017-09-18T05:29:05.517Z,20.64
2017-09-18T05:30:05.543Z,20.60
2017-09-18T05:31:05.578Z,20.69
2017-09-18T05:32:05.913Z,20.72
2017-09-18T05:33:05.641Z,20.72
2017-09-18T05:34:05.680Z,20.71
2017-09-18T05:35:05.710Z,20.71
2017-09-18T05:36:05.750Z,20.76
2017-09-18T05:37:05.776Z,20.87
2017-09-18T05:38:05.801Z,20.85
2017-09-18T05:39:06.130Z,20.78
2017-09-18T05:40:05.876Z,20.83
2017-09-18T05:41:05.940Z,20.81
2017-09-18T05:42:05.938Z,20.85
2017-09-18T05:43:05.972Z,20.88
2017-09-18T05:44:05.995Z,20.87
2017-09-18T05:45:06.324Z,20.83
2017-09-18T05:46:06.064Z,20.94
2017-09-18T05:47:06.145Z,20.87
2017-09-18T05:48:06.124Z,20.85
2017-09-18T05:49:06.165Z,20.97
2017-09-18T05:50:06.192Z,20.97
2017-09-18T05:51:06.227Z,20.88
2017-09-18T05:52:06.602Z,20.87
2017-09-18T05:53:06.279Z,20.94
2017-09-18T05:54:06.317Z,20.94
2017-09-18T05:55:06.348Z,21.06
2017-09-18T05:56:06.387Z,20.96
2017-09-18T05:57:06.662Z,20.97
2017-09-18T05:58:06.445Z,20.94
2017-09-18T05:59:06.774Z,20.97
2017-09-18T06:00:06.509Z,20.96
2017-09-18T06:01:06.540Z,20.97
2017-09-18T06:02:06.577Z,21.01
2017-09-18T06:03:06.607Z,21.03
2017-09-18T06:04:06.639Z,21.00
2017-09-18T06:05:06.665Z,21.00
2017-09-18T06:06:07.005Z,21.05
2017-09-18T06:07:06.738Z,21.01
2017-09-18T06:08:06.830Z,21.01
2017-09-18T06:09:06.802Z,21.05
2017-09-18T06:10:06.830Z,21.05
2017-09-18T06:11:06.860Z,21.00
2017-09-18T06:12:07.043Z,21.08
2017-09-18T06:13:07.223Z,21.05
2017-09-18T06:14:06.961Z,21.05
2017-09-18T06:15:06.990Z,21.03
2017-09-18T06:16:07.038Z,21.06
2017-09-18T06:17:07.155Z,21.03
2017-09-18T06:18:07.088Z,21.13
2017-09-18T06:19:07.130Z,21.16
2017-09-18T06:20:07.455Z,21.18
2017-09-18T06:21:07.193Z,21.13
2017-09-18T06:22:07.230Z,21.21
2017-09-18T06:23:07.246Z,21.13
2017-09-18T06:24:07.286Z,21.09
2017-09-18T06:25:07.314Z,21.16
2017-09-18T06:26:07.645Z,21.15
2017-09-18T06:27:07.534Z,21.16
2017-09-18T06:28:07.415Z,21.21
2017-09-18T06:29:07.444Z,21.21
2017-09-18T06:30:07.486Z,21.22
2017-09-18T06:31:07.510Z,21.26
2017-09-18T06:32:07.840Z,21.24
2017-09-18T06:33:07.576Z,21.18
2017-09-18T06:34:07.604Z,21.21
2017-09-18T06:35:07.639Z,21.22
2017-09-18T06:36:07.674Z,21.19
2017-09-18T06:37:07.799Z,21.24
2017-09-18T06:38:08.046Z,21.30
2017-09-18T06:39:07.768Z,21.36
2017-09-18T06:40:07.806Z,21.28
2017-09-18T06:41:07.891Z,21.27
2017-09-18T06:42:07.881Z,21.30
2017-09-18T06:43:07.901Z,21.31
2017-09-18T06:44:08.247Z,21.30
2017-09-18T06:45:07.980Z,21.31
2017-09-18T06:46:08.007Z,21.31
2017-09-18T06:47:08.083Z,21.36
2017-09-18T06:48:08.071Z,21.34
2017-09-18T06:49:08.181Z,21.33
2017-09-18T06:50:08.426Z,21.38
2017-09-18T06:51:08.164Z,21.42
2017-09-18T06:52:08.346Z,21.31
2017-09-18T06:53:08.241Z,21.37
2017-09-18T06:54:08.258Z,21.43
2017-09-18T06:55:08.294Z,21.42
2017-09-18T06:56:08.641Z,21.42
2017-09-18T06:57:08.356Z,21.49
2017-09-18T06:59:08.425Z,21.46
2017-09-18T07:00:08.463Z,21.48
2017-09-18T07:01:08.489Z,21.52
2017-09-18T07:02:08.821Z,21.56
2017-09-18T07:03:08.707Z,21.51
2017-09-18T07:04:08.581Z,21.55
2017-09-18T07:05:08.624Z,21.56
2017-09-18T07:06:08.664Z,21.52
2017-09-18T07:07:08.691Z,21.55
2017-09-18T07:08:09.020Z,21.59
2017-09-18T07:09:08.751Z,21.63
2017-09-18T07:10:08.782Z,21.63
2017-09-18T07:11:08.863Z,21.59
2017-09-18T07:12:08.845Z,21.61
2017-09-18T07:13:08.900Z,21.64
2017-09-18T07:14:09.210Z,21.67
2017-09-18T07:15:08.950Z,21.68
2017-09-18T07:16:09.032Z,21.73
2017-09-18T07:17:09.017Z,21.74
2017-09-18T07:18:09.044Z,21.74
2017-09-18T07:19:09.075Z,21.77
2017-09-18T07:20:09.439Z,21.83
2017-09-18T07:21:09.297Z,21.81
2017-09-18T07:22:09.185Z,21.81
2017-09-18T07:23:09.212Z,21.79
2017-09-18T07:24:09.248Z,21.91
2017-09-18T07:25:09.275Z,21.86
2017-09-18T07:26:09.617Z,21.86
2017-09-18T07:27:09.446Z,21.86
2017-09-18T07:28:09.384Z,21.90
2017-09-18T07:29:09.409Z,21.94
2017-09-18T07:30:09.446Z,21.85
2017-09-18T07:31:09.480Z,21.94
2017-09-18T07:32:09.826Z,21.99
2017-09-18T07:33:09.541Z,22.01
2017-09-18T07:34:09.572Z,22.04
2017-09-18T07:35:09.610Z,21.98
2017-09-18T07:36:09.643Z,22.05
2017-09-18T07:37:09.670Z,22.01
2017-09-18T07:38:10.367Z,22.02
2017-09-18T07:39:09.740Z,22.08
2017-09-18T07:40:09.775Z,22.01
2017-09-18T07:41:09.803Z,21.99
2017-09-18T07:42:09.843Z,22.05
2017-09-18T07:43:09.920Z,22.05
2017-09-18T07:44:09.906Z,22.04
2017-09-18T07:45:09.952Z,22.04
2017-09-18T07:46:09.971Z,22.09
2017-09-18T07:47:10.008Z,22.04
2017-09-18T07:48:10.190Z,22.08
2017-09-18T07:49:10.072Z,22.06
2017-09-18T07:50:10.410Z,22.06
2017-09-18T07:51:10.148Z,22.12
2017-09-18T07:52:10.176Z,22.04
2017-09-18T07:53:10.207Z,22.06
2017-09-18T07:54:10.258Z,22.06
2017-09-18T07:55:10.283Z,22.11
2017-09-18T07:56:10.613Z,22.09
2017-09-18T07:57:10.395Z,22.09
2017-09-18T07:58:10.380Z,22.09
2017-09-18T07:59:10.407Z,22.09
2017-09-18T08:00:10.587Z,22.09
2017-09-18T08:01:10.469Z,22.17
2017-09-18T08:02:10.810Z,22.09
2017-09-18T08:03:10.692Z,22.15
2017-09-18T08:04:10.586Z,22.05
2017-09-18T08:05:10.607Z,22.12
2017-09-18T08:06:10.653Z,22.15
2017-09-18T08:07:10.670Z,22.17
2017-09-18T08:08:11.010Z,22.19
2017-09-18T08:09:10.739Z,22.23
2017-09-18T08:10:10.774Z,22.15
2017-09-18T08:11:10.808Z,22.17
2017-09-18T08:12:10.846Z,22.23
2017-09-18T08:13:10.916Z,22.23
2017-09-18T08:14:11.209Z,22.20
2017-09-18T08:15:10.941Z,22.26
2017-09-18T08:16:10.993Z,22.20
2017-09-18T08:17:11.104Z,22.23
2017-09-18T08:18:11.060Z,22.21
2017-09-18T08:19:11.073Z,22.26
2017-09-18T08:20:11.421Z,22.17
2017-09-18T08:21:11.144Z,22.17
2017-09-18T08:22:11.389Z,22.20
2017-09-18T08:23:11.230Z,22.20
2017-09-18T08:24:11.265Z,22.09
2017-09-18T08:25:11.298Z,22.15
2017-09-18T08:26:11.616Z,22.17
2017-09-18T08:27:11.365Z,22.12
2017-09-18T08:28:11.482Z,22.12
2017-09-18T08:29:11.415Z,22.06
2017-09-18T08:30:11.441Z,22.15
2017-09-18T08:31:11.484Z,22.15
2017-09-18T08:32:11.815Z,22.14
2017-09-18T08:33:11.543Z,22.15
2017-09-18T08:34:11.586Z,22.12
2017-09-18T08:35:11.611Z,22.15
2017-09-18T08:36:11.641Z,22.15
2017-09-18T08:37:11.681Z,22.15
2017-09-18T08:38:12.058Z,22.17
2017-09-18T08:39:11.754Z,22.17
2017-09-18T08:40:11.774Z,22.15
2017-09-18T08:41:11.818Z,22.15
2017-09-18T08:42:11.846Z,22.24
2017-09-18T08:43:11.884Z,22.20
2017-09-18T08:44:12.207Z,22.19
2017-09-18T08:45:11.941Z,22.23
2017-09-18T08:46:11.978Z,22.17
2017-09-18T08:47:12.010Z,22.26
2017-09-18T08:48:12.046Z,22.15
2017-09-18T08:49:12.126Z,22.24
2017-09-18T08:50:12.409Z,22.24
2017-09-18T08:51:12.141Z,22.21
2017-09-18T08:52:12.187Z,22.27
2017-09-18T08:53:12.221Z,22.23
2017-09-18T08:54:12.248Z,22.26
2017-09-18T08:55:12.277Z,22.29
2017-09-18T08:56:12.636Z,22.29
2017-09-18T08:57:12.398Z,22.29
2017-09-18T08:58:12.379Z,22.27
2017-09-18T08:59:12.411Z,22.27
2017-09-18T09:00:12.453Z,22.29
2017-09-18T09:01:12.473Z,22.26
2017-09-18T09:02:12.829Z,22.30
2017-09-18T09:03:12.549Z,22.33
2017-09-18T09:04:12.596Z,22.33
2017-09-18T09:05:12.617Z,22.33
2017-09-18T09:06:12.648Z,22.29
2017-09-18T09:07:12.759Z,22.27
2017-09-18T09:08:13.120Z,22.19
2017-09-18T09:09:12.743Z,22.31
2017-09-18T09:10:12.799Z,22.30
2017-09-18T09:11:12.813Z,22.24
2017-09-18T09:12:13.637Z,22.29
2017-09-18T09:13:13.106Z,22.23
2017-09-18T09:14:13.798Z,22.23
2017-09-18T09:15:12.942Z,22.24
2017-09-18T09:16:13.097Z,22.24
2017-09-18T09:17:13.058Z,22.26
2017-09-18T09:18:13.041Z,22.26
2017-09-18T09:19:13.126Z,22.23
2017-09-18T09:20:13.409Z,22.23
2017-09-18T09:21:13.142Z,22.23
2017-09-18T09:22:13.569Z,22.27
2017-09-18T09:23:13.264Z,22.21
2017-09-18T09:24:13.250Z,22.29
2017-09-18T09:25:13.309Z,22.23
2017-09-18T09:26:13.892Z,22.21
2017-09-18T09:27:13.405Z,22.21
2017-09-18T09:28:13.437Z,22.21
2017-09-18T09:29:13.410Z,22.23
2017-09-18T09:30:13.448Z,22.23
2017-09-18T09:31:13.484Z,22.24
2017-09-18T09:32:13.845Z,22.27
2017-09-18T09:33:13.542Z,22.19
2017-09-18T09:34:13.580Z,22.24
2017-09-18T09:35:13.620Z,22.23
2017-09-18T09:36:13.643Z,22.09
2017-09-18T09:37:13.723Z,22.20
2017-09-18T09:38:14.037Z,22.12
2017-09-18T09:39:13.741Z,22.11
2017-09-18T09:40:13.775Z,22.09
2017-09-18T09:41:13.813Z,22.09
2017-09-18T09:42:13.865Z,22.08
2017-09-18T09:43:13.874Z,22.01
2017-09-18T09:44:14.211Z,22.09
2017-09-18T09:45:13.943Z,22.09
2017-09-18T09:46:13.979Z,22.14
2017-09-18T09:47:14.258Z,22.01
2017-09-18T09:48:14.043Z,22.05
2017-09-18T09:49:14.076Z,22.01
2017-09-18T09:50:14.419Z,22.05
2017-09-18T09:51:14.137Z,22.02
2017-09-18T09:52:14.174Z,22.09
2017-09-18T09:53:14.286Z,22.06
2017-09-18T09:54:14.239Z,22.05
2017-09-18T09:55:14.273Z,21.98
2017-09-18T09:56:14.615Z,22.02
2017-09-18T09:57:14.343Z,22.02
2017-09-18T09:58:14.382Z,21.98
2017-09-18T09:59:14.401Z,22.06
2017-09-18T10:00:14.494Z,22.01
2017-09-18T10:01:14.468Z,22.01
2017-09-18T10:02:14.806Z,21.98
2017-09-18T10:03:14.537Z,22.08
2017-09-18T10:04:14.571Z,22.08
2017-09-18T10:05:14.601Z,22.08
2017-09-18T10:06:14.639Z,22.05
2017-09-18T10:07:14.671Z,22.06
2017-09-18T10:08:15.004Z,22.01
2017-09-18T10:09:14.737Z,22.06
2017-09-18T10:10:14.768Z,22.09
2017-09-18T10:11:14.806Z,22.06
2017-09-18T10:12:15.089Z,22.06
2017-09-18T10:13:14.902Z,22.14
2017-09-18T10:14:15.203Z,22.17
2017-09-18T10:15:14.946Z,22.19
2017-09-18T10:16:14.970Z,22.17
2017-09-18T10:17:15.015Z,22.24
2017-09-18T10:18:15.083Z,22.15
2017-09-18T10:19:15.065Z,22.21
2017-09-18T10:20:15.412Z,22.30
2017-09-18T10:22:15.174Z,22.31
2017-09-18T10:23:15.216Z,22.24
2017-09-18T10:24:15.235Z,22.29
2017-09-18T10:25:15.272Z,22.31
2017-09-18T10:26:15.608Z,22.31
2017-09-18T10:27:15.537Z,22.41
2017-09-18T10:28:15.383Z,22.46
2017-09-18T10:29:15.400Z,22.38
2017-09-18T10:30:15.455Z,22.39
2017-09-18T10:31:15.523Z,22.42
2017-09-18T10:32:15.803Z,22.42
2017-09-18T10:33:15.644Z,22.30
2017-09-18T10:34:15.577Z,22.35
2017-09-18T10:35:15.601Z,22.33
2017-09-18T10:36:15.651Z,22.46
2017-09-18T10:37:15.672Z,22.44
2017-09-18T10:38:16.151Z,22.39
2017-09-18T10:39:15.744Z,22.45
2017-09-18T10:40:15.771Z,22.45
2017-09-18T10:41:15.806Z,22.35
2017-09-18T10:42:15.848Z,22.44
2017-09-18T10:43:15.972Z,22.35
2017-09-18T10:44:16.212Z,22.45
2017-09-18T10:45:15.938Z,22.38
2017-09-18T10:46:15.976Z,22.44
2017-09-18T10:47:16.005Z,22.44
2017-09-18T10:48:16.052Z,22.39
2017-09-18T10:49:16.079Z,22.41
2017-09-18T10:50:16.411Z,22.45
2017-09-18T10:51:16.138Z,22.36
2017-09-18T10:52:16.174Z,22.39
2017-09-18T10:53:16.207Z,22.44
2017-09-18T10:54:16.409Z,22.41
2017-09-18T10:55:16.273Z,22.42
2017-09-18T10:57:16.812Z,22.38
2017-09-18T10:58:16.374Z,22.46
2017-09-18T10:59:16.659Z,22.39
2017-09-18T11:00:16.446Z,22.51
2017-09-18T11:01:16.561Z,22.44
2017-09-18T11:02:16.563Z,22.38
2017-09-18T11:03:17.137Z,22.46
2017-09-18T11:04:16.789Z,22.48
2017-09-18T11:05:16.663Z,22.51
2017-09-18T11:06:16.649Z,22.41
2017-09-18T11:07:16.686Z,22.49
2017-09-18T11:09:17.126Z,22.49
2017-09-18T11:10:16.834Z,22.49
2017-09-18T11:11:16.811Z,22.46
2017-09-18T11:12:16.858Z,22.45
2017-09-18T11:13:16.936Z,22.46
2017-09-18T11:14:16.968Z,22.49
2017-09-18T11:15:17.300Z,22.52
2017-09-18T11:16:17.032Z,22.54
2017-09-18T11:17:17.018Z,22.48
2017-09-18T11:18:17.098Z,22.56
2017-09-18T11:19:17.937Z,22.57
2017-09-18T11:20:17.129Z,22.59
2017-09-18T11:21:17.457Z,22.52
2017-09-18T11:22:17.186Z,22.52
2017-09-18T11:23:17.221Z,22.59
2017-09-18T11:24:17.256Z,22.64
2017-09-18T11:25:17.289Z,22.54
2017-09-18T11:26:17.327Z,22.61
2017-09-18T11:27:18.070Z,22.56
2017-09-18T11:28:17.390Z,22.57
2017-09-18T11:29:18.105Z,22.63
2017-09-18T11:30:17.463Z,22.56
2017-09-18T11:33:17.868Z,22.61
2017-09-18T11:35:17.629Z,22.67
2017-09-18T11:36:17.660Z,22.57
2017-09-18T11:37:17.705Z,22.57
2017-09-18T11:39:18.060Z,22.67
2017-09-18T11:40:17.794Z,22.67
2017-09-18T11:41:17.827Z,22.72
2017-09-18T11:42:17.875Z,22.72
2017-09-18T11:43:17.901Z,22.72
2017-09-18T11:44:18.005Z,22.76
2017-09-18T11:45:18.267Z,22.74
2017-09-18T11:46:18.011Z,22.64
2017-09-18T11:47:18.039Z,22.72
2017-09-18T11:48:18.083Z,22.72
2017-09-18T11:49:18.182Z,22.72
2017-09-18T11:50:18.148Z,22.74
2017-09-18T11:51:18.471Z,22.75
2017-09-18T11:52:18.206Z,22.79
2017-09-18T11:53:18.248Z,22.82
2017-09-18T11:54:18.474Z,22.72
2017-09-18T11:55:18.305Z,22.79
2017-09-18T11:56:18.349Z,22.74
2017-09-18T11:57:18.676Z,22.76
2017-09-18T11:58:18.476Z,22.82
2017-09-18T11:59:18.447Z,22.82
2017-09-18T12:00:18.479Z,22.86
2017-09-18T12:01:18.511Z,22.89
2017-09-18T12:02:18.556Z,22.86
2017-09-18T12:03:18.955Z,22.86
2017-09-18T12:04:18.623Z,22.86
2017-09-18T12:05:18.805Z,22.86
2017-09-18T12:06:18.684Z,22.85
2017-09-18T12:07:18.715Z,22.82
2017-09-18T12:08:18.751Z,22.82
2017-09-18T12:09:19.106Z,22.79
2017-09-18T12:10:18.969Z,22.89
2017-09-18T12:11:18.906Z,22.84
2017-09-18T12:12:18.893Z,22.85
2017-09-18T12:13:18.930Z,22.79
2017-09-18T12:14:18.958Z,22.84
2017-09-18T12:15:19.290Z,22.96
2017-09-18T12:16:19.230Z,22.93
2017-09-18T12:17:19.062Z,22.94
2017-09-18T12:18:19.113Z,22.89
2017-09-18T12:19:19.133Z,22.91
2017-09-18T12:20:19.170Z,22.94
2017-09-18T12:21:19.499Z,22.94
2017-09-18T12:22:19.249Z,22.93
2017-09-18T12:23:19.266Z,23.00
2017-09-18T12:24:19.309Z,23.00
2017-09-18T12:25:19.350Z,23.00
2017-09-18T12:26:19.374Z,23.00
2017-09-18T12:27:19.856Z,22.96
2017-09-18T12:28:19.464Z,23.00
2017-09-18T12:29:19.469Z,23.06
2017-09-18T12:30:19.507Z,23.01
2017-09-18T12:31:19.536Z,23.04
2017-09-18T12:32:19.677Z,23.00
2017-09-18T12:33:19.927Z,23.01
2017-09-18T12:34:19.767Z,23.09
2017-09-18T12:35:19.682Z,23.11
2017-09-18T12:36:19.711Z,23.07
2017-09-18T12:37:19.757Z,23.11
2017-09-18T12:38:19.875Z,23.07
2017-09-18T12:39:20.113Z,23.09
2017-09-18T12:40:19.857Z,23.14
2017-09-18T12:41:19.991Z,23.11
2017-09-18T12:42:19.917Z,23.14
2017-09-18T12:43:19.952Z,23.21
2017-09-18T12:44:19.988Z,23.26
2017-09-18T12:45:20.322Z,23.26
2017-09-18T12:46:20.105Z,23.21
2017-09-18T12:47:20.151Z,23.22
2017-09-18T12:48:20.121Z,23.23
2017-09-18T12:49:20.158Z,23.29
2017-09-18T12:50:20.188Z,23.26
2017-09-18T12:51:20.985Z,23.26
2017-09-18T12:52:20.263Z,23.26
2017-09-18T12:53:20.349Z,23.39
2017-09-18T12:54:20.333Z,23.41
2017-09-18T12:55:20.388Z,23.42
2017-09-18T12:56:20.453Z,23.44
2017-09-18T12:57:20.735Z,23.44
2017-09-18T12:58:20.468Z,23.44
2017-09-18T12:59:20.514Z,23.45
2017-09-18T13:00:20.550Z,23.42
2017-09-18T13:01:20.775Z,23.52
2017-09-18T13:02:20.659Z,23.49
2017-09-18T13:03:20.952Z,23.53
2017-09-18T13:04:20.691Z,23.56
2017-09-18T13:05:20.715Z,23.56
2017-09-18T13:06:20.868Z,23.54